Time;durP1;ratioP1;P1;durP2;ratioP2;P2;SDS_P1;SDS_P2;PMS_P1;PMS_P2;Temp;Humidity;BMP_temperature;BMP_pressure;BME280_temperature;BME280_humidity;BME280_pressure;Samples;Min_cycle;Max_cycle;Signal;HPM_P1;HPM_P2
2023/08/20 00:02:00;;;;;;;2.58;0.93;;;16.70;99.90;;;;;;5093701;28;20028;-73
2023/08/20 00:04:27;;;;;;;3.58;1.52;;;16.70;99.90;;;;;;5070156;28;20040;-73
2023/08/20 00:06:53;;;;;;;3.40;1.35;;;16.70;99.90;;;;;;5067965;28;20072;-72
2023/08/20 00:09:19;;;;;;;7.28;1.48;;;16.70;99.90;;;;;;5087276;28;20067;-73
2023/08/20 00:11:45;;;;;;;2.05;1.23;;;16.60;99.90;;;;;;5070406;28;20131;-73
2023/08/20 00:14:17;;;;;;;1.95;1.70;;;16.60;99.90;;;;;;5088069;28;20147;-72
2023/08/20 00:16:43;;;;;;;3.10;1.20;;;16.60;99.90;;;;;;5085666;28;20093;-72
2023/08/20 00:19:10;;;;;;;2.53;1.38;;;16.60;99.90;;;;;;5096326;28;20462;-73
2023/08/20 00:21:41;;;;;;;2.83;1.58;;;16.60;99.90;;;;;;5103993;28;20093;-72
2023/08/20 00:24:07;;;;;;;5.95;1.80;;;16.60;99.90;;;;;;5070690;28;20602;-73
2023/08/20 00:26:33;;;;;;;3.85;1.45;;;16.60;99.90;;;;;;5087520;28;20051;-73
2023/08/20 00:28:59;;;;;;;3.55;1.33;;;16.60;99.90;;;;;;5090695;28;20037;-72
2023/08/20 00:31:24;;;;;;;3.72;1.67;;;16.60;99.90;;;;;;5087216;28;20044;-72
2023/08/20 00:33:50;;;;;;;6.82;2.05;;;16.60;99.90;;;;;;5052875;28;20047;-73
2023/08/20 00:36:16;;;;;;;3.53;1.83;;;16.60;99.90;;;;;;5070143;28;20542;-73
2023/08/20 00:38:41;;;;;;;4.43;1.58;;;16.50;99.90;;;;;;5103302;28;20044;-72
2023/08/20 00:41:07;;;;;;;2.63;1.30;;;16.50;99.90;;;;;;5088475;28;20043;-73
2023/08/20 00:43:32;;;;;;;3.65;1.65;;;16.50;99.90;;;;;;5087063;28;20521;-75
2023/08/20 00:45:59;;;;;;;3.00;1.73;;;16.50;99.90;;;;;;5068976;28;20048;-72
2023/08/20 00:48:25;;;;;;;1.88;1.63;;;16.40;99.90;;;;;;5082590;28;20449;-72
2023/08/20 00:50:51;;;;;;;2.60;1.80;;;16.40;99.90;;;;;;5083648;28;20499;-73
2023/08/20 00:53:17;;;;;;;6.15;2.38;;;16.40;99.90;;;;;;5067423;28;20043;-73
2023/08/20 00:55:44;;;;;;;3.55;1.88;;;16.40;99.90;;;;;;5049867;28;20380;-72
2023/08/20 00:58:10;;;;;;;6.30;2.03;;;16.30;99.90;;;;;;5067653;28;20064;-73
2023/08/20 01:00:36;;;;;;;3.55;1.95;;;16.30;99.90;;;;;;5098330;28;20077;-73
2023/08/20 01:03:01;;;;;;;1.95;1.45;;;16.30;99.90;;;;;;5068821;28;20044;-72
2023/08/20 01:05:32;;;;;;;3.78;1.77;;;16.30;99.90;;;;;;5069494;28;20048;-72
2023/08/20 01:08:04;;;;;;;9.15;1.85;;;16.30;99.90;;;;;;5061697;28;20066;-72
2023/08/20 01:10:37;;;;;;;9.82;2.17;;;16.20;99.90;;;;;;5076506;28;20075;-73
2023/08/20 01:13:04;;;;;;;2.15;1.75;;;16.20;99.90;;;;;;5087748;28;20139;-72
2023/08/20 01:15:30;;;;;;;4.18;2.03;;;16.20;99.90;;;;;;5087694;28;20052;-72
2023/08/20 01:17:55;;;;;;;1.92;1.35;;;16.20;99.90;;;;;;5068224;28;20039;-73
2023/08/20 01:20:28;;;;;;;2.90;1.55;;;16.20;99.90;;;;;;5088016;28;20055;-73
2023/08/20 01:23:15;;;;;;;2.58;2.10;;;16.20;99.90;;;;;;5070544;28;20473;-72
2023/08/20 01:26:03;;;;;;;3.38;2.53;;;16.20;99.90;;;;;;5067339;28;20047;-72
2023/08/20 01:28:30;;;;;;;6.35;1.88;;;16.20;99.90;;;;;;5068075;28;20090;-72
2023/08/20 01:30:58;;;;;;;8.95;2.42;;;16.20;99.90;;;;;;5087390;28;20115;-72
2023/08/20 01:33:25;;;;;;;4.25;1.88;;;16.20;99.90;;;;;;5066136;28;20116;-73
2023/08/20 01:35:51;;;;;;;3.85;2.00;;;16.10;99.90;;;;;;5098194;28;20044;-73
2023/08/20 01:38:17;;;;;;;2.70;1.90;;;16.10;99.90;;;;;;5080479;28;20024;-72
2023/08/20 01:40:43;;;;;;;3.72;1.88;;;16.00;99.90;;;;;;5055684;28;20048;-73
2023/08/20 01:43:09;;;;;;;2.22;2.03;;;16.00;99.90;;;;;;5067687;28;20051;-73
2023/08/20 01:45:34;;;;;;;6.50;1.92;;;16.00;99.90;;;;;;5093157;28;20397;-73
2023/08/20 01:48:00;;;;;;;4.32;2.30;;;16.00;99.90;;;;;;5086844;28;20078;-73
2023/08/20 01:50:25;;;;;;;2.90;1.83;;;16.00;99.90;;;;;;5051976;28;20074;-72
2023/08/20 01:52:51;;;;;;;7.43;1.67;;;16.00;99.90;;;;;;5068961;28;20036;-73
2023/08/20 01:55:17;;;;;;;4.13;1.80;;;16.00;99.90;;;;;;5070751;28;20078;-74
2023/08/20 01:57:43;;;;;;;5.22;2.13;;;16.00;99.90;;;;;;5051768;28;20131;-73
2023/08/20 02:00:09;;;;;;;3.15;1.80;;;15.90;99.90;;;;;;5066945;28;20494;-75
2023/08/20 02:02:34;;;;;;;4.18;1.92;;;15.90;99.90;;;;;;5077310;28;20040;-72
2023/08/20 02:05:01;;;;;;;5.38;2.05;;;15.90;99.90;;;;;;5054484;28;20043;-73
2023/08/20 02:07:26;;;;;;;4.18;2.15;;;15.90;99.90;;;;;;5069223;28;20079;-73
2023/08/20 02:09:52;;;;;;;3.55;2.03;;;15.90;99.90;;;;;;5067281;28;20063;-72
2023/08/20 02:12:18;;;;;;;4.50;2.10;;;15.90;99.90;;;;;;5068594;28;20549;-73
2023/08/20 02:14:43;;;;;;;4.18;1.80;;;15.90;99.90;;;;;;5073917;28;20143;-72
2023/08/20 02:17:09;;;;;;;2.92;2.03;;;15.90;99.90;;;;;;5089115;28;20072;-73
2023/08/20 02:19:35;;;;;;;4.00;2.38;;;15.90;99.90;;;;;;5084189;28;20041;-72
2023/08/20 02:22:00;;;;;;;3.92;1.88;;;15.90;99.90;;;;;;5060320;28;20457;-71
2023/08/20 02:24:26;;;;;;;6.30;2.47;;;15.90;99.90;;;;;;5071072;28;20032;-73
2023/08/20 02:26:52;;;;;;;4.75;2.53;;;15.90;99.90;;;;;;5077241;28;20440;-73
2023/08/20 02:29:17;;;;;;;4.30;2.17;;;15.90;99.90;;;;;;5074248;28;20047;-72
2023/08/20 02:31:43;;;;;;;7.80;1.98;;;15.90;99.90;;;;;;5084663;28;20086;-72
2023/08/20 02:34:09;;;;;;;7.78;2.50;;;15.90;99.90;;;;;;5068312;28;20100;-74
2023/08/20 02:36:34;;;;;;;4.47;2.40;;;15.90;99.90;;;;;;5085251;28;20156;-73
2023/08/20 02:39:00;;;;;;;5.20;2.33;;;15.90;99.90;;;;;;5072925;28;20044;-72
2023/08/20 02:41:26;;;;;;;2.25;1.67;;;15.90;99.90;;;;;;5086510;28;20505;-73
2023/08/20 02:43:51;;;;;;;8.85;2.80;;;15.80;99.90;;;;;;5076223;28;20094;-73
2023/08/20 02:46:17;;;;;;;4.35;2.17;;;15.80;99.90;;;;;;5088035;28;20089;-72
2023/08/20 02:48:42;;;;;;;5.05;2.17;;;15.80;99.90;;;;;;5099667;28;20401;-72
2023/08/20 02:51:08;;;;;;;4.45;2.45;;;15.80;99.90;;;;;;5061991;28;20123;-74
2023/08/20 02:53:33;;;;;;;5.72;2.75;;;15.80;99.90;;;;;;5086956;28;20488;-73
2023/08/20 02:55:59;;;;;;;5.18;3.65;;;15.80;99.90;;;;;;5079362;28;20039;-72
2023/08/20 02:58:25;;;;;;;2.47;1.80;;;15.80;99.90;;;;;;5052016;28;20490;-73
2023/08/20 03:00:50;;;;;;;3.88;2.30;;;15.80;99.90;;;;;;5077443;28;20040;-72
2023/08/20 03:03:16;;;;;;;6.88;2.55;;;15.80;99.90;;;;;;5085007;28;20032;-71
2023/08/20 03:05:42;;;;;;;3.75;2.28;;;15.80;99.90;;;;;;5069601;28;20035;-72
2023/08/20 03:08:08;;;;;;;5.47;2.25;;;15.70;99.90;;;;;;5067744;28;20033;-74
2023/08/20 03:10:34;;;;;;;4.93;2.58;;;15.70;99.90;;;;;;5080002;28;20075;-71
2023/08/20 03:13:01;;;;;;;4.78;2.25;;;15.80;99.90;;;;;;5077796;28;20528;-71
2023/08/20 03:15:28;;;;;;;6.22;2.65;;;15.80;99.90;;;;;;5069189;28;20057;-73
2023/08/20 03:17:53;;;;;;;5.80;2.20;;;15.80;99.90;;;;;;5081638;28;20036;-72
2023/08/20 03:20:19;;;;;;;10.73;2.70;;;15.80;99.90;;;;;;5064321;28;20048;-72
2023/08/20 03:22:44;;;;;;;4.18;2.45;;;15.80;99.90;;;;;;5079024;28;20051;-72
2023/08/20 03:25:10;;;;;;;3.95;3.00;;;15.80;99.90;;;;;;5099396;28;20044;-72
2023/08/20 03:27:36;;;;;;;5.10;2.22;;;15.80;99.90;;;;;;5071561;28;20039;-73
2023/08/20 03:30:02;;;;;;;4.70;2.30;;;15.80;99.90;;;;;;5064029;28;20036;-73
2023/08/20 03:32:28;;;;;;;4.57;2.97;;;15.70;99.90;;;;;;5089728;28;20105;-73
2023/08/20 03:34:55;;;;;;;4.13;2.42;;;15.70;99.90;;;;;;5106238;28;20044;-73
2023/08/20 03:37:21;;;;;;;4.25;2.88;;;15.70;99.90;;;;;;5101161;28;20032;-73
2023/08/20 03:39:47;;;;;;;4.95;2.42;;;15.70;99.90;;;;;;5088310;28;20036;-73
2023/08/20 03:42:13;;;;;;;6.28;2.42;;;15.70;99.90;;;;;;5071211;28;20028;-72
2023/08/20 03:44:38;;;;;;;4.25;2.50;;;15.70;99.90;;;;;;5106840;28;20059;-73
2023/08/20 03:47:04;;;;;;;6.50;2.80;;;15.70;99.90;;;;;;5061184;28;20468;-72
2023/08/20 03:49:30;;;;;;;5.20;3.05;;;15.70;99.90;;;;;;5076398;28;20044;-72
2023/08/20 03:51:55;;;;;;;5.43;3.03;;;15.70;99.90;;;;;;5069099;28;20474;-73
2023/08/20 03:54:21;;;;;;;4.53;2.78;;;15.70;99.90;;;;;;5075030;28;20044;-73
2023/08/20 03:56:47;;;;;;;3.97;2.00;;;15.70;99.90;;;;;;5071229;28;20059;-72
2023/08/20 03:59:13;;;;;;;6.40;2.88;;;15.70;99.90;;;;;;5064280;28;20048;-73
2023/08/20 04:01:39;;;;;;;4.45;2.92;;;15.70;99.90;;;;;;5077070;28;20040;-73
2023/08/20 04:04:04;;;;;;;4.53;2.20;;;15.70;99.90;;;;;;5070894;28;20064;-72
2023/08/20 04:06:30;;;;;;;5.57;2.70;;;15.70;99.90;;;;;;5093811;28;20043;-72
2023/08/20 04:08:56;;;;;;;5.18;2.25;;;15.70;99.90;;;;;;5089640;28;20075;-73
2023/08/20 04:11:21;;;;;;;5.82;3.03;;;15.70;99.90;;;;;;5080658;28;20134;-73
2023/08/20 04:13:47;;;;;;;2.90;2.08;;;15.60;99.90;;;;;;5071399;28;20135;-72
2023/08/20 04:16:13;;;;;;;4.68;2.42;;;15.60;99.90;;;;;;5106240;28;20093;-72
2023/08/20 04:18:39;;;;;;;5.85;2.30;;;15.60;99.90;;;;;;5089069;28;20055;-73
2023/08/20 04:21:05;;;;;;;3.42;2.17;;;15.60;99.90;;;;;;5072925;28;20470;-72
2023/08/20 04:23:31;;;;;;;4.22;2.70;;;15.60;99.90;;;;;;5070539;28;20119;-73
2023/08/20 04:25:57;;;;;;;4.60;2.60;;;15.60;99.90;;;;;;5089139;28;20135;-73
2023/08/20 04:28:22;;;;;;;5.78;1.90;;;15.60;99.90;;;;;;5048839;28;20036;-72
2023/08/20 04:30:49;;;;;;;4.78;2.60;;;15.60;99.90;;;;;;5068984;28;20154;-73
2023/08/20 04:33:14;;;;;;;4.35;2.10;;;15.60;99.90;;;;;;5071881;28;20120;-72
2023/08/20 04:35:40;;;;;;;4.13;2.08;;;15.60;99.90;;;;;;5067926;28;20534;-73
2023/08/20 04:38:06;;;;;;;6.07;2.33;;;15.50;99.90;;;;;;5087607;28;20028;-73
2023/08/20 04:40:31;;;;;;;4.90;2.20;;;15.50;99.90;;;;;;5097570;28;20449;-72
2023/08/20 04:42:57;;;;;;;5.40;2.08;;;15.50;99.90;;;;;;5058117;28;20067;-73
2023/08/20 04:45:22;;;;;;;4.90;1.92;;;15.50;99.90;;;;;;5077747;28;20031;-73
2023/08/20 04:47:48;;;;;;;5.43;2.15;;;15.50;99.90;;;;;;5106596;28;20187;-72
2023/08/20 04:50:14;;;;;;;6.10;2.30;;;15.50;99.90;;;;;;5081248;28;20449;-73
2023/08/20 04:52:40;;;;;;;4.55;2.33;;;15.50;99.90;;;;;;5052517;28;20410;-72
2023/08/20 04:55:09;;;;;;;5.90;2.90;;;15.50;99.90;;;;;;5070393;28;20055;-72
2023/08/20 04:57:34;;;;;;;3.50;2.40;;;15.50;99.90;;;;;;5094362;28;20039;-73
2023/08/20 05:00:00;;;;;;;7.00;2.53;;;15.50;99.90;;;;;;5090640;28;20043;-72
2023/08/20 05:02:26;;;;;;;2.38;1.73;;;15.60;99.90;;;;;;5066789;28;20115;-72
2023/08/20 05:04:52;;;;;;;5.63;2.22;;;15.60;99.90;;;;;;5075233;28;20138;-73
2023/08/20 05:07:18;;;;;;;4.05;2.05;;;15.60;99.90;;;;;;5089719;28;20028;-72
2023/08/20 05:09:43;;;;;;;8.68;2.78;;;15.70;99.90;;;;;;5052938;28;20131;-72
2023/08/20 05:12:09;;;;;;;4.18;2.33;;;15.70;99.90;;;;;;5066995;28;20501;-73
2023/08/20 05:14:35;;;;;;;6.68;2.85;;;15.70;99.90;;;;;;5057158;28;20467;-73
2023/08/20 05:17:01;;;;;;;8.35;2.88;;;15.70;99.90;;;;;;5086288;28;20040;-72
2023/08/20 05:19:26;;;;;;;5.80;2.03;;;15.70;99.90;;;;;;5052747;28;20044;-71
2023/08/20 05:21:55;;;;;;;7.07;2.63;;;15.80;99.90;;;;;;5072713;28;20044;-73
2023/08/20 05:24:25;;;;;;;9.13;2.40;;;15.80;99.90;;;;;;5087004;28;20036;-72
2023/08/20 05:27:06;;;;;;;7.25;2.35;;;15.90;99.90;;;;;;5053775;28;20501;-73
2023/08/20 05:29:32;;;;;;;7.65;2.53;;;15.90;99.90;;;;;;5081490;28;20100;-72
2023/08/20 05:31:57;;;;;;;6.90;2.40;;;15.90;99.90;;;;;;5088647;28;20032;-73
2023/08/20 05:34:23;;;;;;;7.38;2.35;;;16.00;99.90;;;;;;5066545;28;20047;-72
2023/08/20 05:36:49;;;;;;;6.53;2.85;;;16.00;99.90;;;;;;5078574;28;20043;-72
2023/08/20 05:39:14;;;;;;;9.07;2.95;;;16.10;99.90;;;;;;5085043;28;20521;-73
2023/08/20 05:41:40;;;;;;;4.13;2.50;;;16.10;99.90;;;;;;5087701;28;20165;-72
2023/08/20 05:44:05;;;;;;;4.05;2.45;;;16.10;99.90;;;;;;5100123;28;20042;-72
2023/08/20 05:46:31;;;;;;;5.28;2.30;;;16.20;99.90;;;;;;5074890;28;20036;-73
2023/08/20 05:48:56;;;;;;;11.40;3.15;;;16.20;99.90;;;;;;5072568;28;20036;-72
2023/08/20 05:51:22;;;;;;;5.05;2.45;;;16.20;99.90;;;;;;5067755;28;20162;-72
2023/08/20 05:53:48;;;;;;;8.20;2.78;;;16.30;99.90;;;;;;5085641;28;20118;-73
2023/08/20 05:56:13;;;;;;;8.48;2.60;;;16.30;99.90;;;;;;5086439;28;20039;-72
2023/08/20 05:58:39;;;;;;;5.03;2.70;;;16.40;99.90;;;;;;5096769;28;20052;-73
2023/08/20 06:01:04;;;;;;;3.20;2.33;;;16.40;99.90;;;;;;5057839;28;20501;-73
2023/08/20 06:03:30;;;;;;;3.90;2.20;;;16.50;99.90;;;;;;5067069;28;20051;-72
2023/08/20 06:05:58;;;;;;;5.32;2.05;;;16.60;99.90;;;;;;5086463;28;20327;-72
2023/08/20 06:08:24;;;;;;;5.93;3.45;;;16.60;99.90;;;;;;5085177;28;20426;-72
2023/08/20 06:10:50;;;;;;;7.53;2.63;;;16.70;99.90;;;;;;5069623;28;20105;-72
2023/08/20 06:13:16;;;;;;;7.80;3.45;;;16.70;99.90;;;;;;5066136;28;20130;-72
2023/08/20 06:15:42;;;;;;;6.47;2.80;;;16.80;99.90;;;;;;5096200;28;20446;-72
2023/08/20 06:18:07;;;;;;;14.98;2.80;;;16.80;99.90;;;;;;5084309;28;20043;-74
2023/08/20 06:20:33;;;;;;;6.20;2.55;;;16.90;99.90;;;;;;5067770;28;20054;-72
2023/08/20 06:22:59;;;;;;;7.13;2.70;;;17.00;99.90;;;;;;5066304;28;20123;-72
2023/08/20 06:25:24;;;;;;;12.95;3.05;;;17.00;99.90;;;;;;5064514;28;20039;-72
2023/08/20 06:27:50;;;;;;;5.10;2.20;;;17.10;99.90;;;;;;5067071;28;20047;-75
2023/08/20 06:30:15;;;;;;;7.68;2.20;;;17.10;99.90;;;;;;5066208;28;20130;-73
2023/08/20 06:32:44;;;;;;;7.40;2.63;;;17.20;99.90;;;;;;5089583;28;20047;-74
2023/08/20 06:35:10;;;;;;;11.48;3.08;;;17.20;99.90;;;;;;5065072;28;20055;-74
2023/08/20 06:37:35;;;;;;;4.78;2.40;;;17.30;99.90;;;;;;5047044;28;20044;-74
2023/08/20 06:40:01;;;;;;;6.97;2.33;;;17.30;99.90;;;;;;5064654;28;20429;-73
2023/08/20 06:42:27;;;;;;;5.25;2.55;;;17.40;99.90;;;;;;5066282;28;20091;-74
2023/08/20 06:44:52;;;;;;;5.88;2.65;;;17.40;99.90;;;;;;5068078;28;20036;-73
2023/08/20 06:47:18;;;;;;;7.55;2.92;;;17.40;99.90;;;;;;5049295;28;20036;-75
2023/08/20 06:49:44;;;;;;;10.88;3.60;;;17.50;99.90;;;;;;5062975;28;20486;-73
2023/08/20 06:52:09;;;;;;;13.25;3.38;;;17.50;99.90;;;;;;5066637;28;20035;-74
2023/08/20 06:54:35;;;;;;;10.40;3.70;;;17.50;99.90;;;;;;5033948;28;20041;-75
2023/08/20 06:57:01;;;;;;;11.32;3.88;;;17.60;99.90;;;;;;5063494;28;20035;-74
2023/08/20 06:59:27;;;;;;;8.63;3.28;;;17.70;99.90;;;;;;5085981;28;20463;-74
2023/08/20 07:01:53;;;;;;;6.38;2.80;;;17.80;99.90;;;;;;5037700;28;20040;-74
2023/08/20 07:04:18;;;;;;;14.05;4.38;;;17.80;99.90;;;;;;5068946;28;20039;-73
2023/08/20 07:06:44;;;;;;;9.57;3.00;;;17.90;99.90;;;;;;5083664;28;20159;-73
2023/08/20 07:09:10;;;;;;;12.27;3.70;;;17.90;99.90;;;;;;5084843;28;20047;-73
2023/08/20 07:11:35;;;;;;;10.30;2.38;;;18.00;99.90;;;;;;5094744;28;20043;-73
2023/08/20 07:14:01;;;;;;;10.45;4.07;;;18.00;99.90;;;;;;5052170;28;20507;-73
2023/08/20 07:16:27;;;;;;;14.05;3.38;;;18.10;99.90;;;;;;5085379;28;20406;-73
2023/08/20 07:18:53;;;;;;;9.43;2.88;;;18.10;99.90;;;;;;5068231;28;20493;-72
2023/08/20 07:21:18;;;;;;;13.85;4.25;;;18.20;99.90;;;;;;5063783;28;20131;-72
2023/08/20 07:23:44;;;;;;;10.68;3.47;;;18.20;99.90;;;;;;5051388;28;20183;-73
2023/08/20 07:26:12;;;;;;;12.73;2.88;;;18.20;99.90;;;;;;5064900;28;20505;-74
2023/08/20 07:31:22;;;;;;;16.95;4.45;;;18.30;99.90;;;;;;5067742;28;20146;-73
2023/08/20 07:33:49;;;;;;;7.25;3.00;;;18.40;99.90;;;;;;5068053;28;20098;-73
2023/08/20 07:36:16;;;;;;;14.23;3.60;;;18.40;99.90;;;;;;5086983;28;20070;-74
2023/08/20 07:38:42;;;;;;;12.00;3.20;;;18.50;99.90;;;;;;5061281;28;20128;-75
2023/08/20 07:41:11;;;;;;;9.20;4.20;;;18.50;99.90;;;;;;5089197;28;20047;-74
2023/08/20 07:43:38;;;;;;;12.95;3.30;;;18.60;99.90;;;;;;5075863;28;20048;-74
2023/08/20 07:46:04;;;;;;;9.95;2.08;;;18.60;99.90;;;;;;5097437;28;20028;-72
2023/08/20 07:48:30;;;;;;;9.70;4.30;;;18.60;99.90;;;;;;5088978;28;20119;-74
2023/08/20 07:50:56;;;;;;;7.43;3.20;;;18.60;99.90;;;;;;5070543;28;20126;-74
2023/08/20 07:53:21;;;;;;;6.90;2.97;;;18.60;99.90;;;;;;5091191;28;20051;-74
2023/08/20 07:55:47;;;;;;;10.32;3.00;;;18.70;99.90;;;;;;5064096;28;20494;-74
2023/08/20 07:58:13;;;;;;;7.32;2.72;;;18.70;99.90;;;;;;5064530;28;20051;-74
2023/08/20 08:00:38;;;;;;;5.03;2.55;;;18.80;99.90;;;;;;5048222;28;20040;-74
2023/08/20 08:03:04;;;;;;;11.25;3.47;;;18.80;99.90;;;;;;5068527;28;20570;-74
2023/08/20 08:05:30;;;;;;;13.82;2.60;;;18.80;99.90;;;;;;5067523;28;20176;-75
2023/08/20 08:07:55;;;;;;;11.80;3.28;;;18.80;99.90;;;;;;5083434;28;20482;-74
2023/08/20 08:10:21;;;;;;;8.45;2.95;;;18.90;99.90;;;;;;5085087;28;20055;-74
2023/08/20 08:12:47;;;;;;;10.18;2.70;;;18.90;99.90;;;;;;5064650;28;20055;-75
2023/08/20 08:15:13;;;;;;;7.00;2.40;;;18.90;99.90;;;;;;5074831;28;20056;-74
2023/08/20 08:17:39;;;;;;;9.85;2.72;;;18.90;99.90;;;;;;5067708;28;20042;-74
2023/08/20 08:20:06;;;;;;;8.85;3.00;;;19.00;99.90;;;;;;5069415;28;20086;-72
2023/08/20 08:22:31;;;;;;;4.53;2.20;;;19.00;99.90;;;;;;5085148;28;20539;-72
2023/08/20 08:24:57;;;;;;;5.00;2.20;;;19.10;99.90;;;;;;5069005;28;20084;-73
2023/08/20 08:27:23;;;;;;;6.18;2.05;;;19.10;99.90;;;;;;5043795;28;20050;-73
2023/08/20 08:29:48;;;;;;;9.50;2.30;;;19.20;99.90;;;;;;5086646;28;20070;-73
2023/08/20 08:32:14;;;;;;;7.15;1.88;;;19.20;99.90;;;;;;5078975;28;20117;-72
2023/08/20 08:34:40;;;;;;;3.20;1.90;;;19.20;99.90;;;;;;5069251;28;20444;-73
2023/08/20 08:37:05;;;;;;;8.00;2.63;;;19.20;99.90;;;;;;5094074;28;20128;-72
2023/08/20 08:39:31;;;;;;;9.07;1.77;;;19.20;99.90;;;;;;5086212;28;20054;-71
2023/08/20 08:42:04;;;;;;;5.43;2.40;;;19.30;99.90;;;;;;5068734;28;20032;-73
2023/08/20 08:44:34;;;;;;;5.57;1.90;;;19.30;99.90;;;;;;5083202;28;20072;-73
2023/08/20 08:47:01;;;;;;;8.70;2.08;;;19.30;99.90;;;;;;5038123;28;20044;-73
2023/08/20 08:49:29;;;;;;;4.30;1.60;;;19.30;99.90;;;;;;5062708;28;20075;-73
2023/08/20 08:51:56;;;;;;;9.02;1.83;;;19.40;99.90;;;;;;5056695;28;20044;-72
2023/08/20 08:54:23;;;;;;;5.18;1.98;;;19.40;99.90;;;;;;5086802;28;20131;-72
2023/08/20 08:56:49;;;;;;;6.15;2.08;;;19.50;99.90;;;;;;5069578;28;20082;-73
2023/08/20 08:59:15;;;;;;;5.25;1.83;;;19.60;99.90;;;;;;5086236;28;20490;-75
2023/08/20 09:01:41;;;;;;;4.28;1.48;;;19.70;99.90;;;;;;5087763;28;20040;-73
2023/08/20 09:04:07;;;;;;;6.63;2.17;;;19.60;99.90;;;;;;5068397;28;20044;-73
2023/08/20 09:06:46;;;;;;;7.65;1.52;;;19.60;99.90;;;;;;5070416;28;20367;-74
2023/08/20 09:09:12;;;;;;;4.95;2.03;;;19.60;99.90;;;;;;5072112;28;20513;-75
2023/08/20 09:11:38;;;;;;;14.15;2.08;;;19.70;99.90;;;;;;5069574;28;20089;-73
2023/08/20 09:14:04;;;;;;;8.43;2.72;;;19.70;99.90;;;;;;5087700;28;20060;-72
2023/08/20 09:16:30;;;;;;;7.15;2.10;;;19.80;99.90;;;;;;5071146;28;20044;-74
2023/08/20 09:19:00;;;;;;;7.15;2.05;;;19.80;99.90;;;;;;5088271;28;20566;-73
2023/08/20 09:21:32;;;;;;;8.48;1.65;;;19.80;99.90;;;;;;5060102;28;20502;-75
2023/08/20 09:23:57;;;;;;;4.03;1.58;;;19.80;99.90;;;;;;5061866;28;20048;-74
2023/08/20 09:26:23;;;;;;;10.32;2.53;;;19.90;99.90;;;;;;5094990;28;20503;-74
2023/08/20 09:28:49;;;;;;;5.85;1.23;;;20.00;99.90;;;;;;5052856;28;20118;-74
2023/08/20 09:31:15;;;;;;;8.23;1.58;;;20.10;99.90;;;;;;5087834;28;20044;-75
2023/08/20 09:33:54;;;;;;;4.10;1.60;;;20.10;99.90;;;;;;5087216;28;20033;-75
2023/08/20 09:36:30;;;;;;;10.48;1.90;;;20.10;99.90;;;;;;5067248;28;20051;-81
2023/08/20 09:38:56;;;;;;;5.45;1.50;;;20.20;99.90;;;;;;5086068;28;20115;-82
2023/08/20 09:41:23;;;;;;;9.45;2.80;;;20.20;99.90;;;;;;5098875;28;20131;-82
2023/08/20 09:43:52;;;;;;;6.05;1.58;;;20.20;99.90;;;;;;5053521;28;20079;-80
2023/08/20 09:46:20;;;;;;;3.75;1.73;;;20.20;99.90;;;;;;5089184;28;20525;-82
2023/08/20 09:48:50;;;;;;;7.88;1.80;;;20.20;99.90;;;;;;5099344;28;20092;-75
2023/08/20 09:51:24;;;;;;;6.15;1.63;;;20.20;99.90;;;;;;5080656;28;20406;-75
2023/08/20 09:53:53;;;;;;;5.68;2.42;;;20.30;99.90;;;;;;5092063;28;20046;-75
2023/08/20 09:56:28;;;;;;;3.38;1.45;;;20.30;99.90;;;;;;5052551;28;20127;-75
2023/08/20 09:58:55;;;;;;;4.10;1.73;;;20.40;99.90;;;;;;5063916;28;20067;-74
2023/08/20 10:01:20;;;;;;;6.72;1.40;;;20.50;99.90;;;;;;5085826;28;20411;-73
2023/08/20 10:03:46;;;;;;;3.70;1.35;;;20.50;99.90;;;;;;5089707;28;20040;-74
2023/08/20 10:06:12;;;;;;;4.40;1.77;;;20.60;99.90;;;;;;5077812;28;20097;-73
2023/08/20 10:08:38;;;;;;;8.38;1.40;;;20.60;99.90;;;;;;5089416;28;20043;-76
2023/08/20 10:11:04;;;;;;;3.28;1.17;;;20.70;99.90;;;;;;5087920;28;20079;-74
2023/08/20 10:13:29;;;;;;;2.72;1.20;;;20.70;99.90;;;;;;5086845;28;20079;-74
2023/08/20 10:15:56;;;;;;;5.28;1.40;;;20.80;99.90;;;;;;5084325;28;20067;-73
2023/08/20 10:18:22;;;;;;;4.03;1.98;;;20.80;99.90;;;;;;5068071;28;20056;-74
2023/08/20 10:20:51;;;;;;;6.78;1.40;;;20.70;99.90;;;;;;5053186;28;20545;-75
2023/08/20 10:23:23;;;;;;;5.18;1.58;;;20.80;99.90;;;;;;5096785;28;20036;-74
2023/08/20 10:25:52;;;;;;;5.22;1.88;;;20.80;99.90;;;;;;5082068;28;20055;-76
2023/08/20 10:28:24;;;;;;;3.42;1.20;;;20.80;99.90;;;;;;5070669;28;20078;-74
2023/08/20 10:31:10;;;;;;;5.32;1.25;;;20.80;99.90;;;;;;5081435;28;20402;-76
2023/08/20 10:33:38;;;;;;;6.05;1.73;;;20.80;99.90;;;;;;5066588;28;20128;-77
2023/08/20 10:36:17;;;;;;;1.45;0.88;;;20.70;99.90;;;;;;5085723;28;21306;-74
2023/08/20 10:38:45;;;;;;;3.25;1.75;;;20.80;99.90;;;;;;5071787;28;20490;-74
2023/08/20 10:41:11;;;;;;;1.00;0.90;;;20.70;99.90;;;;;;5087602;28;20044;-75
2023/08/20 10:43:39;;;;;;;6.32;0.98;;;20.80;99.90;;;;;;5093489;28;20113;-74
2023/08/20 10:46:07;;;;;;;1.08;0.98;;;20.80;99.90;;;;;;5096112;28;20040;-73
2023/08/20 10:48:34;;;;;;;2.92;1.70;;;20.80;99.90;;;;;;5088664;28;20044;-78
2023/08/20 10:51:11;;;;;;;1.60;1.02;;;20.80;99.90;;;;;;5069115;28;20066;-73
2023/08/20 10:53:37;;;;;;;3.83;1.52;;;20.90;99.90;;;;;;5095481;28;20083;-74
2023/08/20 10:56:17;;;;;;;5.00;1.52;;;20.90;99.90;;;;;;5089877;28;20036;-74
2023/08/20 10:58:44;;;;;;;2.80;1.30;;;20.90;99.90;;;;;;5084005;28;20075;-73
2023/08/20 11:01:22;;;;;;;7.22;1.10;;;20.90;99.90;;;;;;5068696;28;20032;-74
2023/08/20 11:03:51;;;;;;;4.07;1.10;;;20.90;99.90;;;;;;5068211;28;20036;-73
2023/08/20 11:06:18;;;;;;;3.10;1.10;;;20.90;99.90;;;;;;5070341;28;20463;-73
2023/08/20 11:08:44;;;;;;;2.92;1.35;;;20.90;99.90;;;;;;5054551;28;20044;-72
2023/08/20 11:11:11;;;;;;;4.20;1.17;;;21.00;99.90;;;;;;5088946;28;20040;-75
2023/08/20 11:13:37;;;;;;;4.60;1.88;;;21.20;99.90;;;;;;5054839;28;20106;-73
2023/08/20 11:16:04;;;;;;;2.42;1.20;;;21.20;99.90;;;;;;5071382;28;20094;-74
2023/08/20 11:18:33;;;;;;;4.82;1.45;;;21.20;99.90;;;;;;5091996;28;20032;-77
2023/08/20 11:21:00;;;;;;;4.32;1.00;;;21.20;99.90;;;;;;5088992;28;20393;-74
2023/08/20 11:23:25;;;;;;;6.25;1.35;;;21.30;99.90;;;;;;5087925;28;20103;-74
2023/08/20 11:25:51;;;;;;;3.08;1.40;;;21.40;99.90;;;;;;5074461;28;20047;-73
2023/08/20 11:28:17;;;;;;;4.88;1.65;;;21.40;99.90;;;;;;5084880;28;20435;-73
2023/08/20 11:30:43;;;;;;;9.05;1.63;;;21.40;99.90;;;;;;5069628;28;20040;-75
2023/08/20 11:33:09;;;;;;;4.25;1.25;;;21.40;99.90;;;;;;5088034;28;20040;-75
2023/08/20 11:35:35;;;;;;;2.60;1.00;;;21.40;99.90;;;;;;5089226;28;20405;-74
2023/08/20 11:38:03;;;;;;;5.03;1.30;;;21.40;99.90;;;;;;5088265;28;20040;-72
2023/08/20 11:40:29;;;;;;;4.38;1.17;;;21.40;99.90;;;;;;5074637;28;20062;-73
2023/08/20 11:42:55;;;;;;;7.35;1.27;;;21.40;99.90;;;;;;5078724;28;20036;-74
2023/08/20 11:45:20;;;;;;;0.98;0.85;;;21.40;99.90;;;;;;5052616;28;20044;-75
2023/08/20 11:47:46;;;;;;;4.80;1.58;;;21.30;99.90;;;;;;5070338;28;20398;-74
2023/08/20 11:50:12;;;;;;;4.57;1.27;;;21.40;99.90;;;;;;5070093;28;20417;-74
2023/08/20 11:52:41;;;;;;;8.27;2.10;;;21.40;99.90;;;;;;5070238;28;20032;-76
2023/08/20 11:55:07;;;;;;;2.42;1.23;;;21.40;99.90;;;;;;5058902;28;20047;-74
2023/08/20 11:57:33;;;;;;;3.25;0.90;;;21.40;99.90;;;;;;5070307;28;20036;-74
2023/08/20 12:00:13;;;;;;;2.58;1.33;;;21.40;99.90;;;;;;5070096;28;20376;-75
2023/08/20 12:02:42;;;;;;;2.78;0.95;;;21.50;99.90;;;;;;5087930;28;20044;-75
2023/08/20 12:05:07;;;;;;;1.00;0.82;;;21.50;99.90;;;;;;5097295;28;20039;-76
2023/08/20 12:07:33;;;;;;;2.15;1.45;;;21.50;99.90;;;;;;5054032;28;20043;-74
2023/08/20 12:10:18;;;;;;;5.18;1.08;;;21.50;99.90;;;;;;5069966;28;20047;-74
2023/08/20 12:12:45;;;;;;;2.60;0.93;;;21.50;99.90;;;;;;5071619;28;20047;-74
2023/08/20 12:15:10;;;;;;;3.17;1.40;;;21.50;99.90;;;;;;5089855;28;20058;-77
2023/08/20 12:17:36;;;;;;;4.57;1.20;;;21.50;99.90;;;;;;5070787;28;20056;-77
2023/08/20 12:20:09;;;;;;;3.08;1.30;;;21.50;99.90;;;;;;5069700;28;20078;-76
2023/08/20 12:22:35;;;;;;;2.83;1.00;;;21.60;99.90;;;;;;5077342;28;20109;-75
2023/08/20 12:25:01;;;;;;;3.20;1.10;;;21.60;99.90;;;;;;5053489;28;20044;-74
2023/08/20 12:27:27;;;;;;;4.03;1.08;;;21.60;99.90;;;;;;5087300;28;20040;-75
2023/08/20 12:29:53;;;;;;;3.55;1.27;;;21.60;99.90;;;;;;5088021;28;20040;-74
2023/08/20 12:32:18;;;;;;;3.85;1.13;;;21.60;99.90;;;;;;5086612;28;20046;-75
2023/08/20 12:34:44;;;;;;;5.47;1.20;;;21.60;99.90;;;;;;5073242;28;20044;-75
2023/08/20 12:37:10;;;;;;;1.38;1.10;;;21.60;99.90;;;;;;5085298;28;20040;-75
2023/08/20 12:39:35;;;;;;;4.25;1.40;;;21.70;99.90;;;;;;5069534;28;20621;-75
2023/08/20 12:42:01;;;;;;;4.03;1.00;;;21.70;99.90;;;;;;5087519;28;20032;-72
2023/08/20 12:44:26;;;;;;;5.30;1.33;;;21.70;99.90;;;;;;5072017;28;20089;-74
2023/08/20 12:46:52;;;;;;;1.95;1.40;;;21.70;99.90;;;;;;5064444;28;20047;-75